createdAt,value
2022-07-30T00:00:40.364Z,99.90
2022-07-30T00:03:09.326Z,99.90
2022-07-30T00:05:39.631Z,99.90
2022-07-30T00:08:08.914Z,99.90
2022-07-30T00:10:37.710Z,99.90
2022-07-30T00:13:06.727Z,99.90
2022-07-30T00:15:35.661Z,99.90
2022-07-30T00:18:04.456Z,99.90
2022-07-30T00:20:33.678Z,99.90
2022-07-30T00:23:06.115Z,99.90
2022-07-30T00:25:35.376Z,99.90
2022-07-30T00:28:04.133Z,99.90
2022-07-30T00:30:33.093Z,99.90
2022-07-30T00:33:02.798Z,99.90
2022-07-30T00:35:31.775Z,99.90
2022-07-30T00:38:00.673Z,99.90
2022-07-30T00:40:31.838Z,99.90
2022-07-30T00:43:00.921Z,99.90
2022-07-30T00:45:29.816Z,99.90
2022-07-30T00:48:01.718Z,99.90
2022-07-30T00:50:30.577Z,99.90
2022-07-30T00:52:59.717Z,99.90
2022-07-30T00:55:28.758Z,99.90
2022-07-30T00:57:59.096Z,99.90
2022-07-30T01:00:28.666Z,99.90
2022-07-30T01:02:57.556Z,99.90
2022-07-30T01:05:26.683Z,99.90
2022-07-30T01:07:55.496Z,99.90
2022-07-30T01:10:24.385Z,99.90
2022-07-30T01:12:54.706Z,99.90
2022-07-30T01:15:25.163Z,99.90
2022-07-30T01:18:01.293Z,99.90
2022-07-30T01:20:32.468Z,99.90
2022-07-30T01:23:09.912Z,99.90
2022-07-30T01:25:57.462Z,99.90
2022-07-30T01:28:31.329Z,99.90
2022-07-30T01:31:01.841Z,99.90
2022-07-30T01:33:34.017Z,99.90
2022-07-30T01:36:04.104Z,99.90
2022-07-30T01:38:34.895Z,99.90
2022-07-30T01:41:07.982Z,99.90
2022-07-30T01:43:38.666Z,99.90
2022-07-30T01:46:08.724Z,99.90
2022-07-30T01:48:42.501Z,99.90
2022-07-30T01:51:14.612Z,99.90
2022-07-30T01:53:51.268Z,99.90
2022-07-30T01:56:25.787Z,99.90
2022-07-30T01:58:57.046Z,99.90
2022-07-30T02:01:28.214Z,99.90
2022-07-30T02:04:04.549Z,99.90
2022-07-30T02:06:40.403Z,99.90
2022-07-30T02:09:16.964Z,99.90
2022-07-30T02:12:07.254Z,99.90
2022-07-30T02:14:44.665Z,99.90
2022-07-30T02:17:19.296Z,99.90
2022-07-30T02:19:52.725Z,99.90
2022-07-30T02:22:23.810Z,99.90
2022-07-30T02:24:54.720Z,99.90
2022-07-30T02:27:29.421Z,99.90
2022-07-30T02:30:00.782Z,99.90
2022-07-30T02:32:37.075Z,99.90
2022-07-30T02:35:12.879Z,99.90
2022-07-30T02:37:44.642Z,99.90
2022-07-30T02:40:16.887Z,99.90
2022-07-30T02:42:51.096Z,99.90
2022-07-30T02:45:25.330Z,99.90
2022-07-30T02:47:57.725Z,99.90
2022-07-30T02:50:27.759Z,99.90
2022-07-30T02:52:59.442Z,99.90
2022-07-30T02:55:31.716Z,99.90
2022-07-30T02:58:04.360Z,99.90
2022-07-30T03:00:35.226Z,99.90
2022-07-30T03:03:07.409Z,99.90
2022-07-30T03:05:40.823Z,99.90
2022-07-30T03:08:10.341Z,99.90
2022-07-30T03:10:41.102Z,99.90
2022-07-30T03:13:12.121Z,99.90
2022-07-30T03:15:49.118Z,99.90
2022-07-30T03:18:20.597Z,99.90
2022-07-30T03:20:52.213Z,99.90
2022-07-30T03:23:22.129Z,99.90
2022-07-30T03:25:56.388Z,99.90
2022-07-30T03:28:28.002Z,99.90
2022-07-30T03:30:57.615Z,99.90
2022-07-30T03:33:38.253Z,99.90
2022-07-30T03:36:10.080Z,99.90
2022-07-30T03:38:40.289Z,99.90
2022-07-30T03:41:11.561Z,99.90
2022-07-30T03:43:44.225Z,99.90
2022-07-30T03:46:15.067Z,99.90
2022-07-30T03:48:47.808Z,99.90
2022-07-30T03:51:19.055Z,99.90
2022-07-30T03:53:49.197Z,99.90
2022-07-30T03:56:38.031Z,99.90
2022-07-30T03:59:11.377Z,99.90
2022-07-30T04:01:42.740Z,99.90
2022-07-30T04:04:31.668Z,99.90
2022-07-30T04:07:01.353Z,99.90
2022-07-30T04:09:31.356Z,99.90
2022-07-30T04:12:10.911Z,99.90
2022-07-30T04:14:43.053Z,99.90
2022-07-30T04:17:19.499Z,99.90
2022-07-30T04:19:53.418Z,99.90
2022-07-30T04:22:26.462Z,99.90
2022-07-30T04:24:57.057Z,99.90
2022-07-30T04:27:27.332Z,99.90
2022-07-30T04:29:58.444Z,99.90
2022-07-30T04:32:27.638Z,99.90
2022-07-30T04:34:57.776Z,99.90
2022-07-30T04:37:49.303Z,99.90
2022-07-30T04:40:18.107Z,99.90
2022-07-30T04:42:47.252Z,99.90
2022-07-30T04:45:20.327Z,99.90
2022-07-30T04:47:55.333Z,99.90
2022-07-30T04:50:44.635Z,99.90
2022-07-30T04:53:16.962Z,99.90
2022-07-30T04:55:52.839Z,99.90
2022-07-30T04:58:25.735Z,99.90
2022-07-30T05:00:56.919Z,99.90
2022-07-30T05:03:36.338Z,99.90
2022-07-30T05:06:07.301Z,99.90
2022-07-30T05:08:40.357Z,99.90
2022-07-30T05:11:14.345Z,99.90
2022-07-30T05:13:46.299Z,99.90
2022-07-30T05:16:19.261Z,99.90
2022-07-30T05:18:48.576Z,99.90
2022-07-30T05:21:17.372Z,99.90
2022-07-30T05:23:50.074Z,99.90
2022-07-30T05:26:38.013Z,99.90
2022-07-30T05:29:08.212Z,99.90
2022-07-30T05:32:03.485Z,99.90
2022-07-30T05:34:36.436Z,99.90
2022-07-30T05:37:06.421Z,99.90
2022-07-30T05:39:40.959Z,99.90
2022-07-30T05:42:48.463Z,99.90
2022-07-30T05:45:17.364Z,99.90
2022-07-30T05:47:47.683Z,99.90
2022-07-30T05:50:16.658Z,99.90
2022-07-30T05:52:46.019Z,99.90
2022-07-30T05:55:36.281Z,99.90
2022-07-30T05:58:31.696Z,99.90
2022-07-30T06:01:01.108Z,99.90
2022-07-30T06:03:35.122Z,99.90
2022-07-30T06:06:24.152Z,99.90
2022-07-30T06:08:53.856Z,99.90
2022-07-30T06:11:23.208Z,99.90
2022-07-30T06:13:52.101Z,99.90
2022-07-30T06:16:21.233Z,99.90
2022-07-30T06:18:51.925Z,99.90
2022-07-30T06:22:05.287Z,99.90
2022-07-30T06:24:32.472Z,99.90
2022-07-30T06:27:12.890Z,99.90
2022-07-30T06:29:41.683Z,99.90
2022-07-30T06:32:11.237Z,99.90
2022-07-30T06:34:41.755Z,99.90
2022-07-30T06:37:10.592Z,99.90
2022-07-30T06:39:53.849Z,99.90
2022-07-30T06:42:30.302Z,99.90
2022-07-30T06:45:32.418Z,99.90
2022-07-30T06:48:37.585Z,99.90
2022-07-30T06:51:09.331Z,99.90
2022-07-30T06:53:42.699Z,99.90
2022-07-30T06:56:14.907Z,99.90
2022-07-30T06:58:50.843Z,99.90
2022-07-30T07:01:38.361Z,99.90
2022-07-30T07:04:08.273Z,99.90
2022-07-30T07:06:41.494Z,99.90
2022-07-30T07:09:12.092Z,99.90
2022-07-30T07:11:50.316Z,99.90
2022-07-30T07:14:21.605Z,99.90
2022-07-30T07:16:50.531Z,99.90
2022-07-30T07:20:00.972Z,99.90
2022-07-30T07:22:30.079Z,99.20
2022-07-30T07:24:58.983Z,99.50
2022-07-30T07:27:30.888Z,99.80
2022-07-30T07:30:05.690Z,99.80
2022-07-30T07:32:38.200Z,99.70
2022-07-30T07:35:07.574Z,99.60
2022-07-30T07:37:41.172Z,99.90
2022-07-30T07:40:14.593Z,99.90
2022-07-30T07:42:44.827Z,99.60
2022-07-30T07:45:13.720Z,99.20
2022-07-30T07:47:53.461Z,98.80
2022-07-30T07:50:41.265Z,99.50
2022-07-30T07:53:19.114Z,99.00
2022-07-30T07:55:48.661Z,99.10
2022-07-30T07:58:22.133Z,99.50
2022-07-30T08:00:55.913Z,99.60
2022-07-30T08:03:36.237Z,99.50
2022-07-30T08:06:23.213Z,98.90
2022-07-30T08:09:13.638Z,99.40
2022-07-30T08:12:08.387Z,99.20
2022-07-30T08:15:11.086Z,99.00
2022-07-30T08:17:58.508Z,98.70
2022-07-30T08:20:45.914Z,98.40
2022-07-30T08:23:16.272Z,98.60
2022-07-30T08:25:47.389Z,98.90
2022-07-30T08:28:34.166Z,98.50
2022-07-30T08:31:05.533Z,98.90
2022-07-30T08:33:35.018Z,98.50
2022-07-30T08:36:09.610Z,99.00
2022-07-30T08:38:40.632Z,98.30
2022-07-30T08:41:12.221Z,98.10
2022-07-30T08:43:42.017Z,97.90
2022-07-30T08:46:15.318Z,97.70
2022-07-30T08:48:54.194Z,97.20
2022-07-30T08:51:24.209Z,97.10
2022-07-30T08:54:08.337Z,97.60
2022-07-30T08:56:39.838Z,97.90
2022-07-30T08:59:09.204Z,97.90
2022-07-30T09:01:38.989Z,98.10
2022-07-30T09:04:08.541Z,96.90
2022-07-30T09:06:38.312Z,97.10
2022-07-30T09:09:08.479Z,96.30
2022-07-30T09:11:39.303Z,95.00
2022-07-30T09:16:46.470Z,99.90
2022-07-30T09:19:18.163Z,95.90
2022-07-30T09:21:57.954Z,95.70
2022-07-30T09:24:45.686Z,95.10
2022-07-30T09:27:48.141Z,94.60
2022-07-30T09:30:51.032Z,94.80
2022-07-30T09:33:41.882Z,94.10
2022-07-30T09:36:33.640Z,95.00
2022-07-30T09:39:31.097Z,94.50
2022-07-30T09:42:28.717Z,94.50
2022-07-30T09:45:09.907Z,93.10
2022-07-30T09:47:40.453Z,92.70
2022-07-30T09:50:11.583Z,92.90
2022-07-30T09:52:44.198Z,93.60
2022-07-30T09:55:31.988Z,92.70
2022-07-30T09:58:05.661Z,93.70
2022-07-30T10:06:38.333Z,99.90
2022-07-30T10:09:38.070Z,99.90
2022-07-30T10:12:11.565Z,98.90
2022-07-30T10:14:47.295Z,98.70
2022-07-30T10:17:21.774Z,99.00
2022-07-30T10:20:26.702Z,99.90
2022-07-30T10:23:16.032Z,99.90
2022-07-30T10:52:50.820Z,99.90
2022-07-30T10:55:36.626Z,99.90
2022-07-30T11:15:06.640Z,99.90
2022-07-30T11:18:12.220Z,90.60
2022-07-30T11:20:48.826Z,90.50
2022-07-30T11:23:40.070Z,90.40
2022-07-30T11:26:14.127Z,90.30
2022-07-30T11:28:49.354Z,89.50
2022-07-30T11:31:55.051Z,90.30
2022-07-30T11:34:30.737Z,90.10
2022-07-30T11:37:22.263Z,91.00
2022-07-30T11:40:14.420Z,90.50
2022-07-30T11:42:45.139Z,89.00
2022-07-30T11:45:29.888Z,90.50
2022-07-30T11:48:01.588Z,90.50
2022-07-30T11:50:33.228Z,91.10
2022-07-30T11:53:04.117Z,90.80
2022-07-30T11:55:35.395Z,91.00
2022-07-30T11:58:07.306Z,90.30
2022-07-30T12:00:40.156Z,90.40
2022-07-30T12:03:11.746Z,90.00
2022-07-30T12:05:42.098Z,90.80
2022-07-30T12:08:36.007Z,90.50
2022-07-30T12:11:02.993Z,89.90
2022-07-30T12:13:45.335Z,89.50
2022-07-30T12:16:19.544Z,90.10
2022-07-30T12:18:49.254Z,90.60
2022-07-30T12:21:19.156Z,89.00
2022-07-30T12:23:56.988Z,90.20
2022-07-30T12:26:29.049Z,91.10
2022-07-30T12:28:59.577Z,89.00
2022-07-30T12:31:30.156Z,90.80
2022-07-30T12:34:00.582Z,90.40
2022-07-30T12:36:32.144Z,88.50
2022-07-30T12:39:01.650Z,86.00
2022-07-30T12:41:44.020Z,86.90
2022-07-30T12:44:13.027Z,87.40
2022-07-30T12:46:43.811Z,89.30
2022-07-30T12:49:21.302Z,88.80
2022-07-30T12:52:00.201Z,89.50
2022-07-30T12:54:30.263Z,89.10
2022-07-30T12:57:01.071Z,87.30
2022-07-30T12:59:31.194Z,88.20
2022-07-30T13:02:02.602Z,88.80
2022-07-30T13:04:34.173Z,90.40
2022-07-30T13:07:06.250Z,90.20
2022-07-30T13:09:35.397Z,90.60
2022-07-30T13:12:04.843Z,90.40
2022-07-30T13:14:34.435Z,90.60
2022-07-30T13:17:05.282Z,92.10
2022-07-30T13:19:34.444Z,91.10
2022-07-30T13:22:03.404Z,90.50
2022-07-30T13:24:34.212Z,91.30
2022-07-30T13:27:03.268Z,91.80
2022-07-30T13:29:32.417Z,90.70
2022-07-30T13:32:01.020Z,90.70
2022-07-30T13:34:31.374Z,90.60
2022-07-30T13:37:00.506Z,91.80
2022-07-30T13:39:29.561Z,91.00
2022-07-30T13:41:58.763Z,91.50
2022-07-30T13:44:28.017Z,92.30
2022-07-30T13:46:59.987Z,91.00
2022-07-30T13:49:32.330Z,90.40
2022-07-30T13:52:01.337Z,90.30
2022-07-30T13:54:30.576Z,90.60
2022-07-30T13:56:59.708Z,90.60
2022-07-30T13:59:28.907Z,90.50
2022-07-30T14:01:58.214Z,91.30
2022-07-30T14:04:27.111Z,91.00
2022-07-30T14:06:57.839Z,90.60
2022-07-30T14:09:27.027Z,90.00
2022-07-30T14:11:56.464Z,90.50
2022-07-30T14:14:25.732Z,90.40
2022-07-30T14:16:54.549Z,91.20
2022-07-30T14:19:24.599Z,90.70
2022-07-30T14:21:54.648Z,90.40
2022-07-30T14:24:25.067Z,90.30
2022-07-30T14:26:58.678Z,90.70
2022-07-30T14:29:28.555Z,90.70
2022-07-30T14:31:57.900Z,90.60
2022-07-30T14:34:27.329Z,90.00
2022-07-30T14:36:56.137Z,90.10
2022-07-30T14:39:26.762Z,90.40
2022-07-30T14:41:56.296Z,90.40
2022-07-30T14:44:25.568Z,90.50
2022-07-30T14:46:54.668Z,90.10
2022-07-30T14:49:24.176Z,90.20
2022-07-30T14:51:53.445Z,90.30
2022-07-30T14:54:22.595Z,89.30
2022-07-30T14:56:58.014Z,90.20
2022-07-30T14:59:27.777Z,90.20
2022-07-30T15:01:56.988Z,90.20
2022-07-30T15:04:26.474Z,89.60
2022-07-30T15:06:55.571Z,89.50
2022-07-30T15:09:24.034Z,89.50
2022-07-30T15:17:09.370Z,88.10
2022-07-30T15:19:49.359Z,88.00
2022-07-30T15:22:20.652Z,89.50
2022-07-30T15:24:50.044Z,88.80
2022-07-30T15:27:22.372Z,89.70
2022-07-30T15:29:56.724Z,90.40
2022-07-30T15:32:25.555Z,90.20
2022-07-30T15:34:55.182Z,90.20
2022-07-30T15:37:24.608Z,89.90
2022-07-30T15:39:53.630Z,90.30
2022-07-30T15:42:24.223Z,90.60
2022-07-30T15:45:15.392Z,90.70
2022-07-30T15:47:42.060Z,90.90
2022-07-30T15:50:10.621Z,90.90
2022-07-30T15:52:39.814Z,90.60
2022-07-30T15:55:10.125Z,90.40
2022-07-30T15:57:40.722Z,90.60
2022-07-30T16:00:10.933Z,90.50
2022-07-30T16:02:45.331Z,91.00
2022-07-30T16:05:14.522Z,90.90
2022-07-30T16:07:43.675Z,91.40
2022-07-30T16:10:12.856Z,91.30
2022-07-30T16:12:43.309Z,91.30
2022-07-30T16:15:12.601Z,91.60
2022-07-30T16:17:45.093Z,91.60
2022-07-30T16:20:13.582Z,92.20
2022-07-30T16:22:42.892Z,92.50
2022-07-30T16:25:12.006Z,92.90
2022-07-30T16:27:42.765Z,93.10
2022-07-30T16:30:12.951Z,93.20
2022-07-30T16:32:42.176Z,93.30
2022-07-30T16:35:13.389Z,93.60
2022-07-30T16:37:42.482Z,93.70
2022-07-30T16:40:12.643Z,94.10
2022-07-30T16:42:43.135Z,94.30
2022-07-30T16:45:12.593Z,94.20
2022-07-30T16:47:41.403Z,94.00
2022-07-30T16:50:11.089Z,93.70
2022-07-30T16:52:40.138Z,94.00
2022-07-30T16:55:09.099Z,93.90
2022-07-30T16:57:38.608Z,94.10
2022-07-30T17:00:12.659Z,94.40
2022-07-30T17:02:41.741Z,94.50
2022-07-30T17:05:13.742Z,94.90
2022-07-30T17:07:43.292Z,95.00
2022-07-30T17:10:13.062Z,95.20
2022-07-30T17:12:42.822Z,95.30
2022-07-30T17:15:32.067Z,95.40
2022-07-30T17:18:01.870Z,95.60
2022-07-30T17:20:31.853Z,95.60
2022-07-30T17:23:00.788Z,95.70
2022-07-30T17:25:29.484Z,95.60
2022-07-30T17:27:59.605Z,95.90
2022-07-30T17:30:30.649Z,95.90
2022-07-30T17:32:59.995Z,96.30
2022-07-30T17:35:29.098Z,96.50
2022-07-30T17:37:58.021Z,96.60
2022-07-30T17:40:31.626Z,96.70
2022-07-30T17:43:04.782Z,96.80
2022-07-30T17:45:37.009Z,97.00
2022-07-30T17:48:06.820Z,96.90
2022-07-30T17:50:36.357Z,97.00
2022-07-30T17:53:05.970Z,97.60
2022-07-30T17:55:35.739Z,98.30
2022-07-30T17:58:05.289Z,98.60
2022-07-30T18:00:36.060Z,98.40
2022-07-30T18:03:05.583Z,99.20
2022-07-30T18:05:35.220Z,99.60
2022-07-30T18:08:04.070Z,99.60
2022-07-30T18:10:33.040Z,99.20
2022-07-30T18:13:25.719Z,99.70
2022-07-30T18:15:52.916Z,99.70
2022-07-30T18:18:21.786Z,99.50
2022-07-30T18:20:50.614Z,99.70
2022-07-30T18:23:20.440Z,99.70
2022-07-30T18:25:54.304Z,99.90
2022-07-30T18:28:23.399Z,99.50
2022-07-30T18:30:55.256Z,99.60
2022-07-30T18:33:24.566Z,99.70
2022-07-30T18:35:53.520Z,99.90
2022-07-30T18:38:22.441Z,99.90
2022-07-30T18:40:58.900Z,99.90
2022-07-30T18:43:29.268Z,99.90
2022-07-30T18:46:02.707Z,99.90
2022-07-30T18:48:31.982Z,99.90
2022-07-30T18:51:00.431Z,99.90
2022-07-30T18:53:29.902Z,99.90
2022-07-30T18:55:59.184Z,99.90
2022-07-30T18:58:28.286Z,99.90
2022-07-30T19:00:56.808Z,99.90
2022-07-30T19:03:30.419Z,99.90
2022-07-30T19:05:59.301Z,99.90
2022-07-30T19:08:28.098Z,99.90
2022-07-30T19:10:57.056Z,99.90
2022-07-30T19:13:28.121Z,99.90
2022-07-30T19:15:57.205Z,99.90
2022-07-30T19:18:27.076Z,99.90
2022-07-30T19:20:55.971Z,99.90
2022-07-30T19:23:25.061Z,99.90
2022-07-30T19:25:53.737Z,99.90
2022-07-30T19:28:22.463Z,99.90
2022-07-30T19:30:51.244Z,99.90
2022-07-30T19:33:20.178Z,99.90
2022-07-30T19:35:50.472Z,99.90
2022-07-30T19:38:21.738Z,99.90
2022-07-30T19:40:51.367Z,99.90
2022-07-30T19:43:23.796Z,99.90
2022-07-30T19:45:53.400Z,99.90
2022-07-30T19:48:28.421Z,99.90
2022-07-30T19:50:59.533Z,99.90
2022-07-30T19:53:31.592Z,99.90
2022-07-30T19:56:08.260Z,99.90
2022-07-30T19:58:40.308Z,99.90
2022-07-30T20:01:09.965Z,99.90
2022-07-30T20:03:41.643Z,99.90
2022-07-30T20:06:18.633Z,99.90
2022-07-30T20:08:49.784Z,99.90
2022-07-30T20:11:36.229Z,99.90
2022-07-30T20:14:05.589Z,99.90
2022-07-30T20:16:35.690Z,99.90
2022-07-30T20:19:04.764Z,99.90
2022-07-30T20:21:54.276Z,99.90
2022-07-30T20:24:25.163Z,99.90
2022-07-30T20:26:54.645Z,99.90
2022-07-30T20:29:23.931Z,99.90
2022-07-30T20:31:53.685Z,99.90
2022-07-30T20:34:26.141Z,99.90
2022-07-30T20:36:57.953Z,99.90
2022-07-30T20:39:42.935Z,99.90
2022-07-30T20:42:13.325Z,99.90
2022-07-30T20:44:49.392Z,99.90
2022-07-30T20:47:34.489Z,99.90
2022-07-30T20:50:09.907Z,99.90
2022-07-30T20:52:46.619Z,99.90
2022-07-30T20:55:17.017Z,99.90
2022-07-30T20:58:01.205Z,99.90
2022-07-30T21:00:36.800Z,99.90
2022-07-30T21:03:06.781Z,99.90
2022-07-30T21:05:43.227Z,99.90
2022-07-30T21:08:13.723Z,99.90
2022-07-30T21:10:44.737Z,99.90
2022-07-30T21:13:15.107Z,99.90
2022-07-30T21:15:45.584Z,99.90
2022-07-30T21:18:31.018Z,99.90
2022-07-30T21:21:00.620Z,99.90
2022-07-30T21:23:31.287Z,99.90
2022-07-30T21:26:05.790Z,99.90
2022-07-30T21:28:36.421Z,99.90
2022-07-30T21:31:06.915Z,99.90
2022-07-30T21:33:40.222Z,99.90
2022-07-30T21:36:10.929Z,99.90
2022-07-30T21:38:42.573Z,99.90
2022-07-30T21:41:14.448Z,99.90
2022-07-30T21:43:45.010Z,99.90
2022-07-30T21:46:14.842Z,99.90
2022-07-30T21:48:44.488Z,99.90
2022-07-30T21:51:15.799Z,99.90
2022-07-30T21:53:46.649Z,99.90
2022-07-30T21:56:16.686Z,99.90
2022-07-30T21:58:48.509Z,99.90
2022-07-30T22:01:22.630Z,99.90
2022-07-30T22:04:01.153Z,99.90
2022-07-30T22:06:34.482Z,99.90
2022-07-30T22:09:18.096Z,99.90
2022-07-30T22:11:47.469Z,99.90
2022-07-30T22:14:16.233Z,99.90
2022-07-30T22:16:46.110Z,99.90
2022-07-30T22:19:15.794Z,99.90
2022-07-30T22:21:47.694Z,99.90
2022-07-30T22:24:29.247Z,99.90
2022-07-30T22:27:09.734Z,99.90
2022-07-30T22:29:43.680Z,99.90
2022-07-30T22:32:13.453Z,99.90
2022-07-30T22:34:44.840Z,99.90
2022-07-30T22:37:15.584Z,99.90
2022-07-30T22:39:50.322Z,99.90
2022-07-30T22:42:24.510Z,99.90
2022-07-30T22:44:55.588Z,99.90
2022-07-30T22:47:50.241Z,99.90
2022-07-30T22:50:14.754Z,99.90
2022-07-30T22:52:55.102Z,99.90
2022-07-30T22:55:38.395Z,99.90
2022-07-30T22:58:07.273Z,99.90
2022-07-30T23:00:37.068Z,99.90
2022-07-30T23:03:08.028Z,99.90
2022-07-30T23:05:36.968Z,99.90
2022-07-30T23:08:08.878Z,99.90
2022-07-30T23:10:39.000Z,99.90
2022-07-30T23:15:42.038Z,99.90
2022-07-30T23:18:10.687Z,99.90
2022-07-30T23:20:39.390Z,99.90
2022-07-30T23:23:08.479Z,99.90
2022-07-30T23:25:39.381Z,99.90
2022-07-30T23:28:08.231Z,99.90
2022-07-30T23:30:37.279Z,99.90
2022-07-30T23:33:06.184Z,99.90
2022-07-30T23:35:35.702Z,99.90
2022-07-30T23:38:04.444Z,99.90
2022-07-30T23:40:33.335Z,99.90
2022-07-30T23:43:03.520Z,99.90
2022-07-30T23:45:32.476Z,99.90
2022-07-30T23:48:03.296Z,99.90
2022-07-30T23:50:33.810Z,99.90
2022-07-30T23:53:02.897Z,99.90
2022-07-30T23:55:32.422Z,99.90
2022-07-30T23:58:03.422Z,99.90
